Time;durP1;ratioP1;P1;durP2;ratioP2;P2;SDS_P1;SDS_P2;PMS_P1;PMS_P2;Temp;Humidity;BMP_temperature;BMP_pressure;BME280_temperature;BME280_humidity;BME280_pressure;Samples;Min_cycle;Max_cycle;Signal;HPM_P1;HPM_P2
2022/02/24 00:00:10;;;;;;;;;;;;;;;;;;1014461;29;911;-28
2022/02/24 00:00:44;;;;;;;;;;;;;;;;;;1015241;29;1030;-27
2022/02/24 00:01:14;;;;;;;;;;;;;;;;;;1014806;29;796;-27
2022/02/24 00:01:45;;;;;;;;;;;;;;;;;;1015134;29;979;-27
2022/02/24 00:02:15;;;;;;;;;;;;;;;;;;1014741;29;1018;-28
2022/02/24 00:02:46;;;;;;;;;;;;;;;;;;1015268;29;994;-28
2022/02/24 00:03:16;;;;;;;;;;;;;;;;;;1014863;29;1039;-28
2022/02/24 00:03:47;;;;;;;;;;;;;;;;;;1014889;29;1984;-28
2022/02/24 00:04:18;;;;;;;;;;;;;;;;;;1015074;29;1010;-27
2022/02/24 00:04:48;;;;;;;;;;;;;;;;;;1014844;29;816;-28
2022/02/24 00:05:19;;;;;;;;;;;;;;;;;;1015181;29;1014;-28
2022/02/24 00:05:50;;;;;;;;;;;;;;;;;;1014717;29;1049;-28
2022/02/24 00:06:22;;;;;;;;;;;;;;;;;;1015244;29;796;-28
2022/02/24 00:06:53;;;;;;;;;;;;;;;;;;1014796;29;911;-28
2022/02/24 00:07:24;;;;;;;;;;;;;;;;;;1014362;29;911;-28
2022/02/24 00:07:54;;;;;;;;;;;;;;;;;;1014858;29;998;-28
2022/02/24 00:08:25;;;;;;;;;;;;;;;;;;1014860;29;923;-28
2022/02/24 00:08:55;;;;;;;;;;;;;;;;;;1014951;29;1106;-28
2022/02/24 00:09:26;;;;;;;;;;;;;;;;;;1014984;29;991;-28
2022/02/24 00:09:56;;;;;;;;;;;;;;;;;;1014788;29;973;-28
2022/02/24 00:10:26;;;;;;;;;;;;;;;;;;1014577;29;989;-27
2022/02/24 00:10:57;;;;;;;;;;;;;;;;;;1014688;29;1061;-28
2022/02/24 00:11:27;;;;;;;;;;;;;;;;;;1014553;29;927;-28
2022/02/24 00:12:02;;;;;;;;;;;;;;;;;;1014599;29;852;-28
2022/02/24 00:12:32;;;;;;;;;;;;;;;;;;1014707;29;1016;-28
2022/02/24 00:13:02;;;;;;;;;;;;;;;;;;1014571;29;784;-27
2022/02/24 00:13:33;;;;;;;;;;;;;;;;;;1015171;29;1002;-28
2022/02/24 00:14:03;;;;;;;;;;;;;;;;;;1014574;29;1408;-28
2022/02/24 00:14:33;;;;;;;;;;;;;;;;;;1014864;29;844;-28
2022/02/24 00:15:05;;;;;;;;;;;;;;;;;;1014785;29;904;-27
2022/02/24 00:15:35;;;;;;;;;;;;;;;;;;1014969;29;1010;-28
2022/02/24 00:16:06;;;;;;;;;;;;;;;;;;1014986;29;975;-28
2022/02/24 00:16:37;;;;;;;;;;;;;;;;;;1014836;29;954;-28
2022/02/24 00:17:07;;;;;;;;;;;;;;;;;;1015060;29;978;-27
2022/02/24 00:17:38;;;;;;;;;;;;;;;;;;1014743;29;960;-27
2022/02/24 00:18:09;;;;;;;;;;;;;;;;;;1014966;29;943;-27
2022/02/24 00:18:39;;;;;;;;;;;;;;;;;;1014929;29;958;-27
2022/02/24 00:19:09;;;;;;;;;;;;;;;;;;1014868;29;927;-27
2022/02/24 00:19:40;;;;;;;;;;;;;;;;;;1015124;29;1054;-27
2022/02/24 00:20:11;;;;;;;;;;;;;;;;;;1014845;29;875;-27
2022/02/24 00:20:41;;;;;;;;;;;;;;;;;;1015093;29;935;-27
2022/02/24 00:21:12;;;;;;;;;;;;;;;;;;1014825;29;895;-27
2022/02/24 00:21:42;;;;;;;;;;;;;;;;;;1015091;29;999;-28
2022/02/24 00:22:13;;;;;;;;;;;;;;;;;;1014016;29;954;-28
2022/02/24 00:22:43;;;;;;;;;;;;;;;;;;1015214;29;947;-28
2022/02/24 00:23:13;;;;;;;;;;;;;;;;;;1015522;29;968;-28
2022/02/24 00:23:44;;;;;;;;;;;;;;;;;;1015885;29;1903;-28
2022/02/24 00:24:14;;;;;;;;;;;;;;;;;;1015650;29;1001;-28
2022/02/24 00:24:45;;;;;;;;;;;;;;;;;;1015700;29;962;-28
2022/02/24 00:25:16;;;;;;;;;;;;;;;;;;1015825;29;1033;-28
2022/02/24 00:25:46;;;;;;;;;;;;;;;;;;1015623;29;955;-28
2022/02/24 00:26:17;;;;;;;;;;;;;;;;;;1015828;29;1011;-28
2022/02/24 00:26:47;;;;;;;;;;;;;;;;;;1015620;29;945;-28
2022/02/24 00:27:17;;;;;;;;;;;;;;;;;;1015740;29;943;-28
2022/02/24 00:27:48;;;;;;;;;;;;;;;;;;1015361;29;1197;-28
2022/02/24 00:28:18;;;;;;;;;;;;;;;;;;1015604;29;943;-28
2022/02/24 00:28:48;;;;;;;;;;;;;;;;;;1015741;29;941;-28
2022/02/24 00:29:18;;;;;;;;;;;;;;;;;;1015465;29;868;-28
2022/02/24 00:29:49;;;;;;;;;;;;;;;;;;1015443;29;944;-28
2022/02/24 00:30:20;;;;;;;;;;;;;;;;;;1015508;29;937;-28
2022/02/24 00:30:50;;;;;;;;;;;;;;;;;;1015800;29;922;-28
2022/02/24 00:31:22;;;;;;;;;;;;;;;;;;1015650;29;1047;-28
2022/02/24 00:31:53;;;;;;;;;;;;;;;;;;1015785;29;931;-28
2022/02/24 00:32:23;;;;;;;;;;;;;;;;;;1015290;29;1160;-28
2022/02/24 00:32:53;;;;;;;;;;;;;;;;;;1015247;29;785;-28
2022/02/24 00:33:24;;;;;;;;;;;;;;;;;;1015470;29;964;-28
2022/02/24 00:33:54;;;;;;;;;;;;;;;;;;1015223;29;868;-28
2022/02/24 00:34:24;;;;;;;;;;;;;;;;;;1015850;29;1090;-28
2022/02/24 00:34:55;;;;;;;;;;;;;;;;;;1015361;29;1174;-28
2022/02/24 00:35:25;;;;;;;;;;;;;;;;;;1015895;29;892;-28
2022/02/24 00:35:56;;;;;;;;;;;;;;;;;;1015716;29;986;-28
2022/02/24 00:36:26;;;;;;;;;;;;;;;;;;1015536;29;927;-28
2022/02/24 00:36:56;;;;;;;;;;;;;;;;;;1015165;29;937;-28
2022/02/24 00:37:28;;;;;;;;;;;;;;;;;;1015475;29;875;-28
2022/02/24 00:37:59;;;;;;;;;;;;;;;;;;1015880;29;1059;-28
2022/02/24 00:38:29;;;;;;;;;;;;;;;;;;1015368;29;1013;-28
2022/02/24 00:38:59;;;;;;;;;;;;;;;;;;1015899;29;873;-28
2022/02/24 00:39:30;;;;;;;;;;;;;;;;;;1015409;29;1023;-28
2022/02/24 00:40:01;;;;;;;;;;;;;;;;;;1015880;29;1099;-28
2022/02/24 00:40:31;;;;;;;;;;;;;;;;;;1015608;29;937;-28
2022/02/24 00:41:01;;;;;;;;;;;;;;;;;;1015756;29;966;-28
2022/02/24 00:41:32;;;;;;;;;;;;;;;;;;1015694;29;1129;-28
2022/02/24 00:42:02;;;;;;;;;;;;;;;;;;1015675;29;888;-28
2022/02/24 00:42:34;;;;;;;;;;;;;;;;;;1015750;29;936;-28
2022/02/24 00:43:04;;;;;;;;;;;;;;;;;;1015586;29;932;-28
2022/02/24 00:43:35;;;;;;;;;;;;;;;;;;1015609;29;1934;-28
2022/02/24 00:44:05;;;;;;;;;;;;;;;;;;1015584;29;964;-28
2022/02/24 00:44:35;;;;;;;;;;;;;;;;;;1015176;29;872;-28
2022/02/24 00:45:06;;;;;;;;;;;;;;;;;;1015854;29;883;-28
2022/02/24 00:45:36;;;;;;;;;;;;;;;;;;1015357;29;860;-28
2022/02/24 00:46:06;;;;;;;;;;;;;;;;;;1015916;29;863;-28
2022/02/24 00:46:37;;;;;;;;;;;;;;;;;;1015570;29;955;-28
2022/02/24 00:47:07;;;;;;;;;;;;;;;;;;1015773;29;986;-28
2022/02/24 00:47:37;;;;;;;;;;;;;;;;;;1015431;29;1110;-28
2022/02/24 00:48:08;;;;;;;;;;;;;;;;;;1015773;29;911;-28
2022/02/24 00:48:39;;;;;;;;;;;;;;;;;;1015664;29;895;-28
2022/02/24 00:49:09;;;;;;;;;;;;;;;;;;1015609;29;946;-28
2022/02/24 00:49:40;;;;;;;;;;;;;;;;;;1015692;29;964;-28
2022/02/24 00:50:10;;;;;;;;;;;;;;;;;;1015565;29;888;-28
2022/02/24 00:50:41;;;;;;;;;;;;;;;;;;1015750;29;960;-28
2022/02/24 00:51:11;;;;;;;;;;;;;;;;;;1015374;29;1065;-28
2022/02/24 00:51:41;;;;;;;;;;;;;;;;;;1015374;29;954;-28
2022/02/24 00:52:12;;;;;;;;;;;;;;;;;;1015401;29;935;-28
2022/02/24 00:52:42;;;;;;;;;;;;;;;;;;1015830;29;856;-28
2022/02/24 00:53:12;;;;;;;;;;;;;;;;;;1015691;29;963;-28
2022/02/24 00:53:43;;;;;;;;;;;;;;;;;;1015496;29;958;-28
2022/02/24 00:54:14;;;;;;;;;;;;;;;;;;1015701;29;1087;-28
2022/02/24 00:54:47;;;;;;;;;;;;;;;;;;1015510;29;878;-28
2022/02/24 00:55:18;;;;;;;;;;;;;;;;;;1015931;29;800;-28
2022/02/24 00:55:48;;;;;;;;;;;;;;;;;;1015475;29;963;-28
2022/02/24 00:56:18;;;;;;;;;;;;;;;;;;1015659;29;959;-28
2022/02/24 00:56:49;;;;;;;;;;;;;;;;;;1015581;29;907;-28
2022/02/24 00:57:20;;;;;;;;;;;;;;;;;;1015446;29;863;-28
2022/02/24 00:57:50;;;;;;;;;;;;;;;;;;1015621;29;991;-28
2022/02/24 00:58:22;;;;;;;;;;;;;;;;;;1015492;29;916;-28
2022/02/24 00:58:53;;;;;;;;;;;;;;;;;;1015410;29;963;-28
2022/02/24 00:59:23;;;;;;;;;;;;;;;;;;1015161;29;953;-28
2022/02/24 00:59:54;;;;;;;;;;;;;;;;;;1015636;29;912;-28
2022/02/24 01:00:24;;;;;;;;;;;;;;;;;;1015526;29;957;-28
2022/02/24 01:00:54;;;;;;;;;;;;;;;;;;1015631;29;899;-28
2022/02/24 01:01:25;;;;;;;;;;;;;;;;;;1015665;29;960;-28
2022/02/24 01:01:55;;;;;;;;;;;;;;;;;;1015477;29;950;-28
2022/02/24 01:02:26;;;;;;;;;;;;;;;;;;1015364;29;890;-28
2022/02/24 01:02:57;;;;;;;;;;;;;;;;;;1014921;29;990;-28
2022/02/24 01:03:27;;;;;;;;;;;;;;;;;;1015469;29;819;-28
2022/02/24 01:03:57;;;;;;;;;;;;;;;;;;1015029;29;2289;-28
2022/02/24 01:04:28;;;;;;;;;;;;;;;;;;1015262;29;946;-28
2022/02/24 01:04:58;;;;;;;;;;;;;;;;;;1015697;29;880;-28
2022/02/24 01:05:29;;;;;;;;;;;;;;;;;;1015045;29;963;-28
2022/02/24 01:05:59;;;;;;;;;;;;;;;;;;1015472;29;998;-28
2022/02/24 01:06:29;;;;;;;;;;;;;;;;;;1014362;29;959;-28
2022/02/24 01:06:59;;;;;;;;;;;;;;;;;;1015369;29;976;-28
2022/02/24 01:07:30;;;;;;;;;;;;;;;;;;1015219;29;909;-28
2022/02/24 01:08:00;;;;;;;;;;;;;;;;;;1015713;29;1006;-28
2022/02/24 01:08:30;;;;;;;;;;;;;;;;;;1015401;29;1056;-28
2022/02/24 01:09:01;;;;;;;;;;;;;;;;;;1015775;29;859;-28
2022/02/24 01:09:31;;;;;;;;;;;;;;;;;;1015417;29;948;-28
2022/02/24 01:10:02;;;;;;;;;;;;;;;;;;1015661;29;930;-28
2022/02/24 01:10:33;;;;;;;;;;;;;;;;;;1015579;29;983;-28
2022/02/24 01:11:03;;;;;;;;;;;;;;;;;;1015403;29;1032;-28
2022/02/24 01:11:34;;;;;;;;;;;;;;;;;;1015668;29;971;-28
2022/02/24 01:12:04;;;;;;;;;;;;;;;;;;1015458;29;962;-28
2022/02/24 01:12:34;;;;;;;;;;;;;;;;;;1015752;29;851;-28
2022/02/24 01:13:05;;;;;;;;;;;;;;;;;;1015540;29;880;-28
2022/02/24 01:13:35;;;;;;;;;;;;;;;;;;1015505;29;955;-27
2022/02/24 01:14:06;;;;;;;;;;;;;;;;;;1015088;29;1187;-28
2022/02/24 01:14:36;;;;;;;;;;;;;;;;;;1015373;29;780;-28
2022/02/24 01:15:08;;;;;;;;;;;;;;;;;;1015702;29;963;-28
2022/02/24 01:15:42;;;;;;;;;;;;;;;;;;1015408;29;1051;-27
2022/02/24 01:16:12;;;;;;;;;;;;;;;;;;1015669;29;852;-28
2022/02/24 01:16:42;;;;;;;;;;;;;;;;;;1015635;29;1043;-28
2022/02/24 01:17:12;;;;;;;;;;;;;;;;;;1015397;29;1014;-28
2022/02/24 01:17:43;;;;;;;;;;;;;;;;;;1015552;29;901;-28
2022/02/24 01:18:13;;;;;;;;;;;;;;;;;;1015441;29;903;-28
2022/02/24 01:18:44;;;;;;;;;;;;;;;;;;1015746;29;894;-28
2022/02/24 01:19:14;;;;;;;;;;;;;;;;;;1015336;29;977;-28
2022/02/24 01:19:44;;;;;;;;;;;;;;;;;;1015681;29;984;-28
2022/02/24 01:20:15;;;;;;;;;;;;;;;;;;1015420;29;889;-28
2022/02/24 01:20:45;;;;;;;;;;;;;;;;;;1015751;29;965;-28
2022/02/24 01:21:16;;;;;;;;;;;;;;;;;;1014850;29;968;-28
2022/02/24 01:21:46;;;;;;;;;;;;;;;;;;1015603;29;962;-28
2022/02/24 01:22:16;;;;;;;;;;;;;;;;;;1015649;29;907;-28
2022/02/24 01:22:47;;;;;;;;;;;;;;;;;;1015357;29;1070;-28
2022/02/24 01:23:17;;;;;;;;;;;;;;;;;;1015783;29;1098;-28
2022/02/24 01:23:48;;;;;;;;;;;;;;;;;;1015099;29;1981;-28
2022/02/24 01:24:18;;;;;;;;;;;;;;;;;;1015805;29;930;-28
2022/02/24 01:24:48;;;;;;;;;;;;;;;;;;1015407;29;935;-28
2022/02/24 01:25:19;;;;;;;;;;;;;;;;;;1015525;29;852;-28
2022/02/24 01:25:50;;;;;;;;;;;;;;;;;;1015578;29;1009;-28
2022/02/24 01:26:20;;;;;;;;;;;;;;;;;;1015497;29;993;-28
2022/02/24 01:26:50;;;;;;;;;;;;;;;;;;1015597;29;1067;-28
2022/02/24 01:27:21;;;;;;;;;;;;;;;;;;1015369;29;812;-28
2022/02/24 01:27:52;;;;;;;;;;;;;;;;;;1015273;29;1089;-28
2022/02/24 01:28:22;;;;;;;;;;;;;;;;;;1015367;29;935;-28
2022/02/24 01:28:52;;;;;;;;;;;;;;;;;;1014784;29;833;-27
2022/02/24 01:29:23;;;;;;;;;;;;;;;;;;1015135;29;897;-27
2022/02/24 01:29:53;;;;;;;;;;;;;;;;;;1015119;29;947;-27
2022/02/24 01:30:23;;;;;;;;;;;;;;;;;;1015145;29;990;-28
2022/02/24 01:30:54;;;;;;;;;;;;;;;;;;1015411;29;947;-27
2022/02/24 01:31:24;;;;;;;;;;;;;;;;;;1015780;29;1012;-27
2022/02/24 01:31:54;;;;;;;;;;;;;;;;;;1015195;29;840;-27
2022/02/24 01:32:25;;;;;;;;;;;;;;;;;;1015748;29;1027;-27
2022/02/24 01:32:56;;;;;;;;;;;;;;;;;;1015239;29;891;-27
2022/02/24 01:33:26;;;;;;;;;;;;;;;;;;1015636;29;883;-28
2022/02/24 01:33:56;;;;;;;;;;;;;;;;;;1015320;29;877;-27
2022/02/24 01:34:27;;;;;;;;;;;;;;;;;;1015365;29;868;-27
2022/02/24 01:35:01;;;;;;;;;;;;;;;;;;1015600;29;1143;-27
2022/02/24 01:35:31;;;;;;;;;;;;;;;;;;1015286;29;807;-28
2022/02/24 01:36:01;;;;;;;;;;;;;;;;;;1015084;29;1086;-27
2022/02/24 01:36:32;;;;;;;;;;;;;;;;;;1015202;29;940;-28
2022/02/24 01:37:02;;;;;;;;;;;;;;;;;;1015690;29;959;-27
2022/02/24 01:37:33;;;;;;;;;;;;;;;;;;1014760;29;973;-28
2022/02/24 01:38:03;;;;;;;;;;;;;;;;;;1015259;29;1116;-27
2022/02/24 01:38:34;;;;;;;;;;;;;;;;;;1015040;29;965;-28
2022/02/24 01:39:04;;;;;;;;;;;;;;;;;;1015216;29;1314;-27
2022/02/24 01:39:34;;;;;;;;;;;;;;;;;;1015379;29;948;-27
2022/02/24 01:40:06;;;;;;;;;;;;;;;;;;1015360;29;990;-27
2022/02/24 01:40:36;;;;;;;;;;;;;;;;;;1015792;29;895;-27
2022/02/24 01:41:06;;;;;;;;;;;;;;;;;;1015240;29;982;-27
2022/02/24 01:41:37;;;;;;;;;;;;;;;;;;1015498;29;982;-27
2022/02/24 01:42:07;;;;;;;;;;;;;;;;;;1015418;29;1648;-27
2022/02/24 01:42:38;;;;;;;;;;;;;;;;;;1015432;29;1304;-27
2022/02/24 01:43:08;;;;;;;;;;;;;;;;;;1015597;29;971;-27
2022/02/24 01:43:42;;;;;;;;;;;;;;;;;;1014609;29;1976;-27
2022/02/24 01:44:13;;;;;;;;;;;;;;;;;;1015539;29;977;-27
2022/02/24 01:44:44;;;;;;;;;;;;;;;;;;1015381;29;967;-27
2022/02/24 01:45:15;;;;;;;;;;;;;;;;;;1015541;29;1014;-27
2022/02/24 01:45:45;;;;;;;;;;;;;;;;;;1015452;29;1160;-27
2022/02/24 01:46:16;;;;;;;;;;;;;;;;;;1015314;29;1002;-27
2022/02/24 01:46:46;;;;;;;;;;;;;;;;;;1015529;29;976;-27
2022/02/24 01:47:16;;;;;;;;;;;;;;;;;;1015509;29;1014;-27
2022/02/24 01:47:47;;;;;;;;;;;;;;;;;;1015276;29;1053;-27
2022/02/24 01:48:17;;;;;;;;;;;;;;;;;;1015332;29;841;-27
2022/02/24 01:48:48;;;;;;;;;;;;;;;;;;1015414;29;848;-27
2022/02/24 01:49:20;;;;;;;;;;;;;;;;;;1015476;29;946;-28
2022/02/24 01:49:50;;;;;;;;;;;;;;;;;;1015395;29;816;-27
2022/02/24 01:50:21;;;;;;;;;;;;;;;;;;1015573;29;986;-27
2022/02/24 01:50:52;;;;;;;;;;;;;;;;;;1014646;29;844;-28
2022/02/24 01:51:23;;;;;;;;;;;;;;;;;;1015680;29;1537;-27
2022/02/24 01:51:53;;;;;;;;;;;;;;;;;;1015066;29;1002;-27
2022/02/24 01:52:24;;;;;;;;;;;;;;;;;;1015837;29;907;-27
2022/02/24 01:52:54;;;;;;;;;;;;;;;;;;1015118;29;911;-28
2022/02/24 01:53:25;;;;;;;;;;;;;;;;;;1015643;29;1014;-27
2022/02/24 01:53:55;;;;;;;;;;;;;;;;;;1015326;29;1002;-27
2022/02/24 01:54:25;;;;;;;;;;;;;;;;;;1015392;29;954;-27
2022/02/24 01:54:56;;;;;;;;;;;;;;;;;;1015390;29;1004;-27
2022/02/24 01:55:26;;;;;;;;;;;;;;;;;;1015330;29;998;-27
2022/02/24 01:55:56;;;;;;;;;;;;;;;;;;1015518;29;975;-27
2022/02/24 01:56:27;;;;;;;;;;;;;;;;;;1015373;29;986;-27
2022/02/24 01:56:57;;;;;;;;;;;;;;;;;;1015421;29;848;-27
2022/02/24 01:57:29;;;;;;;;;;;;;;;;;;1015204;29;924;-27
2022/02/24 01:57:59;;;;;;;;;;;;;;;;;;1015399;29;979;-27
2022/02/24 01:58:30;;;;;;;;;;;;;;;;;;1014866;29;1063;-27
2022/02/24 01:59:00;;;;;;;;;;;;;;;;;;1015250;29;959;-27
2022/02/24 01:59:31;;;;;;;;;;;;;;;;;;1015477;29;982;-27
2022/02/24 02:00:03;;;;;;;;;;;;;;;;;;1015368;29;875;-27
2022/02/24 02:00:43;;;;;;;;;;;;;;;;;;1015434;29;705;-27
2022/02/24 02:01:13;;;;;;;;;;;;;;;;;;1015505;29;972;-28
2022/02/24 02:01:43;;;;;;;;;;;;;;;;;;1015290;29;792;-27
2022/02/24 02:02:14;;;;;;;;;;;;;;;;;;1015475;29;999;-27
2022/02/24 02:02:45;;;;;;;;;;;;;;;;;;1015238;29;929;-27
2022/02/24 02:03:15;;;;;;;;;;;;;;;;;;1015626;29;954;-28
2022/02/24 02:03:46;;;;;;;;;;;;;;;;;;1015057;29;1923;-28
2022/02/24 02:04:16;;;;;;;;;;;;;;;;;;1015621;29;887;-27
2022/02/24 02:04:46;;;;;;;;;;;;;;;;;;1015276;29;960;-27
2022/02/24 02:05:17;;;;;;;;;;;;;;;;;;1015369;29;923;-27
2022/02/24 02:05:49;;;;;;;;;;;;;;;;;;1014857;29;951;-28
2022/02/24 02:06:20;;;;;;;;;;;;;;;;;;1015186;29;986;-28
2022/02/24 02:06:50;;;;;;;;;;;;;;;;;;1015531;29;1115;-27
2022/02/24 02:07:21;;;;;;;;;;;;;;;;;;1014485;29;1219;-27
2022/02/24 02:07:51;;;;;;;;;;;;;;;;;;1015172;29;931;-27
2022/02/24 02:08:23;;;;;;;;;;;;;;;;;;1014994;29;969;-28
2022/02/24 02:08:53;;;;;;;;;;;;;;;;;;1014925;29;907;-27
2022/02/24 02:09:24;;;;;;;;;;;;;;;;;;1015550;29;1087;-27
2022/02/24 02:09:54;;;;;;;;;;;;;;;;;;1015160;29;835;-27
2022/02/24 02:10:25;;;;;;;;;;;;;;;;;;1015453;29;912;-27
2022/02/24 02:10:55;;;;;;;;;;;;;;;;;;1015213;29;1255;-28
2022/02/24 02:11:25;;;;;;;;;;;;;;;;;;1015533;29;1092;-27
2022/02/24 02:11:56;;;;;;;;;;;;;;;;;;1015242;29;1000;-28
2022/02/24 02:12:26;;;;;;;;;;;;;;;;;;1015587;29;946;-28
2022/02/24 02:12:57;;;;;;;;;;;;;;;;;;1014884;29;927;-28
2022/02/24 02:13:31;;;;;;;;;;;;;;;;;;1015190;29;888;-28
2022/02/24 02:14:02;;;;;;;;;;;;;;;;;;1015143;29;1240;-28
2022/02/24 02:14:32;;;;;;;;;;;;;;;;;;1015252;29;1010;-28
2022/02/24 02:15:03;;;;;;;;;;;;;;;;;;1015559;29;879;-28
2022/02/24 02:15:33;;;;;;;;;;;;;;;;;;1015194;29;875;-28
2022/02/24 02:16:04;;;;;;;;;;;;;;;;;;1015369;29;867;-28
2022/02/24 02:16:34;;;;;;;;;;;;;;;;;;1015428;29;1052;-27
2022/02/24 02:17:04;;;;;;;;;;;;;;;;;;1015263;29;804;-27
2022/02/24 02:17:35;;;;;;;;;;;;;;;;;;1015420;29;967;-28
2022/02/24 02:18:05;;;;;;;;;;;;;;;;;;1014969;29;939;-27
2022/02/24 02:18:37;;;;;;;;;;;;;;;;;;1015504;29;1128;-27
2022/02/24 02:19:08;;;;;;;;;;;;;;;;;;1015030;29;991;-27
2022/02/24 02:19:38;;;;;;;;;;;;;;;;;;1015552;29;852;-28
2022/02/24 02:20:09;;;;;;;;;;;;;;;;;;1015227;29;1018;-27
2022/02/24 02:20:39;;;;;;;;;;;;;;;;;;1014687;29;892;-27
2022/02/24 02:21:10;;;;;;;;;;;;;;;;;;1015464;29;1283;-27
2022/02/24 02:21:40;;;;;;;;;;;;;;;;;;1015230;29;974;-27
2022/02/24 02:22:11;;;;;;;;;;;;;;;;;;1015394;29;968;-27
2022/02/24 02:22:42;;;;;;;;;;;;;;;;;;1015145;29;895;-27
2022/02/24 02:23:13;;;;;;;;;;;;;;;;;;1015458;29;867;-27
2022/02/24 02:23:43;;;;;;;;;;;;;;;;;;1015130;29;1907;-27
2022/02/24 02:24:14;;;;;;;;;;;;;;;;;;1015384;29;1045;-27
2022/02/24 02:24:56;;;;;;;;;;;;;;;;;;1015227;29;1303;-27
2022/02/24 02:25:27;;;;;;;;;;;;;;;;;;1015054;29;907;-27
2022/02/24 02:25:57;;;;;;;;;;;;;;;;;;1015547;29;958;-27
2022/02/24 02:26:27;;;;;;;;;;;;;;;;;;1015079;29;939;-27
2022/02/24 02:26:58;;;;;;;;;;;;;;;;;;1015134;29;836;-27
2022/02/24 02:27:28;;;;;;;;;;;;;;;;;;1014722;29;967;-27
2022/02/24 02:27:58;;;;;;;;;;;;;;;;;;1014261;29;1236;-27
2022/02/24 02:28:29;;;;;;;;;;;;;;;;;;1014837;29;973;-27
2022/02/24 02:28:59;;;;;;;;;;;;;;;;;;1015180;29;666;-27
2022/02/24 02:29:29;;;;;;;;;;;;;;;;;;1015387;29;1047;-27
2022/02/24 02:30:00;;;;;;;;;;;;;;;;;;1015065;29;874;-27
2022/02/24 02:30:31;;;;;;;;;;;;;;;;;;1015441;29;832;-27
2022/02/24 02:31:01;;;;;;;;;;;;;;;;;;1015230;29;974;-27
2022/02/24 02:31:31;;;;;;;;;;;;;;;;;;1015316;29;886;-27
2022/02/24 02:32:04;;;;;;;;;;;;;;;;;;1015430;29;946;-27
2022/02/24 02:32:34;;;;;;;;;;;;;;;;;;1015166;29;915;-27
2022/02/24 02:33:04;;;;;;;;;;;;;;;;;;1015415;29;983;-27
2022/02/24 02:33:35;;;;;;;;;;;;;;;;;;1015109;29;971;-27
2022/02/24 02:34:07;;;;;;;;;;;;;;;;;;1015435;29;836;-27
2022/02/24 02:34:37;;;;;;;;;;;;;;;;;;1015154;29;1182;-28
2022/02/24 02:35:08;;;;;;;;;;;;;;;;;;1014963;29;1030;-27
2022/02/24 02:35:38;;;;;;;;;;;;;;;;;;1015222;29;1102;-27
2022/02/24 02:36:08;;;;;;;;;;;;;;;;;;1015204;29;829;-27
2022/02/24 02:36:40;;;;;;;;;;;;;;;;;;1015309;29;1408;-27
2022/02/24 02:37:11;;;;;;;;;;;;;;;;;;1015136;29;884;-27
2022/02/24 02:37:41;;;;;;;;;;;;;;;;;;1015278;29;972;-27
2022/02/24 02:38:12;;;;;;;;;;;;;;;;;;1015108;29;920;-27
2022/02/24 02:38:42;;;;;;;;;;;;;;;;;;1015429;29;864;-27
2022/02/24 02:39:14;;;;;;;;;;;;;;;;;;1015036;29;1042;-27
2022/02/24 02:39:45;;;;;;;;;;;;;;;;;;1015211;29;780;-27
2022/02/24 02:40:16;;;;;;;;;;;;;;;;;;1015382;29;1014;-28
2022/02/24 02:40:46;;;;;;;;;;;;;;;;;;1015156;29;947;-27
2022/02/24 02:41:17;;;;;;;;;;;;;;;;;;1015350;29;1066;-27
2022/02/24 02:41:47;;;;;;;;;;;;;;;;;;1014959;29;960;-27
2022/02/24 02:42:18;;;;;;;;;;;;;;;;;;1015497;29;795;-27
2022/02/24 02:42:48;;;;;;;;;;;;;;;;;;1014604;29;1154;-27
2022/02/24 02:43:18;;;;;;;;;;;;;;;;;;1015099;29;895;-27
2022/02/24 02:43:49;;;;;;;;;;;;;;;;;;1015318;29;1974;-27
2022/02/24 02:44:19;;;;;;;;;;;;;;;;;;1015051;29;883;-27
2022/02/24 02:44:50;;;;;;;;;;;;;;;;;;1015384;29;931;-27
2022/02/24 02:45:20;;;;;;;;;;;;;;;;;;1014804;29;819;-27
2022/02/24 02:45:51;;;;;;;;;;;;;;;;;;1014961;29;1230;-27
2022/02/24 02:46:21;;;;;;;;;;;;;;;;;;1014958;29;928;-28
2022/02/24 02:46:52;;;;;;;;;;;;;;;;;;1015420;29;994;-27
2022/02/24 02:47:22;;;;;;;;;;;;;;;;;;1014868;29;954;-28
2022/02/24 02:47:53;;;;;;;;;;;;;;;;;;1015373;29;892;-27
2022/02/24 02:48:23;;;;;;;;;;;;;;;;;;1015147;29;908;-27
2022/02/24 02:48:53;;;;;;;;;;;;;;;;;;1015160;29;935;-27
2022/02/24 02:49:24;;;;;;;;;;;;;;;;;;1015231;29;1006;-27
2022/02/24 02:49:54;;;;;;;;;;;;;;;;;;1014846;29;1002;-27
2022/02/24 02:50:25;;;;;;;;;;;;;;;;;;1015005;29;979;-27
2022/02/24 02:50:55;;;;;;;;;;;;;;;;;;1015154;29;876;-27
2022/02/24 02:51:25;;;;;;;;;;;;;;;;;;1015083;29;931;-27
2022/02/24 02:51:56;;;;;;;;;;;;;;;;;;1015451;29;885;-27
2022/02/24 02:52:26;;;;;;;;;;;;;;;;;;1014976;29;831;-27
2022/02/24 02:53:00;;;;;;;;;;;;;;;;;;1015426;29;972;-27
2022/02/24 02:53:30;;;;;;;;;;;;;;;;;;1014912;29;969;-27
2022/02/24 02:54:01;;;;;;;;;;;;;;;;;;1015396;29;812;-27
2022/02/24 02:54:31;;;;;;;;;;;;;;;;;;1015057;29;898;-27
2022/02/24 02:55:04;;;;;;;;;;;;;;;;;;1015209;29;950;-27
2022/02/24 02:55:34;;;;;;;;;;;;;;;;;;1015238;29;841;-27
2022/02/24 02:56:05;;;;;;;;;;;;;;;;;;1015052;29;816;-27
2022/02/24 02:56:35;;;;;;;;;;;;;;;;;;1015224;29;1091;-27
2022/02/24 02:57:06;;;;;;;;;;;;;;;;;;1015046;29;997;-27
2022/02/24 02:57:37;;;;;;;;;;;;;;;;;;1014534;29;949;-28
2022/02/24 02:58:07;;;;;;;;;;;;;;;;;;1014910;29;1030;-27
2022/02/24 02:58:38;;;;;;;;;;;;;;;;;;1015327;29;851;-27
2022/02/24 02:59:08;;;;;;;;;;;;;;;;;;1015119;29;941;-27
2022/02/24 02:59:39;;;;;;;;;;;;;;;;;;1015106;29;1029;-27
2022/02/24 03:00:10;;;;;;;;;;;;;;;;;;1015249;29;1014;-27
2022/02/24 03:00:41;;;;;;;;;;;;;;;;;;1014991;29;871;-27
2022/02/24 03:01:11;;;;;;;;;;;;;;;;;;1015429;29;1058;-27
2022/02/24 03:01:41;;;;;;;;;;;;;;;;;;1014806;29;913;-28
2022/02/24 03:02:12;;;;;;;;;;;;;;;;;;1011125;29;693;-27
2022/02/24 03:02:42;;;;;;;;;;;;;;;;;;1010680;29;885;-27
2022/02/24 03:03:13;;;;;;;;;;;;;;;;;;1011152;29;895;-27
2022/02/24 03:03:43;;;;;;;;;;;;;;;;;;1010814;29;1910;-27
2022/02/24 03:04:13;;;;;;;;;;;;;;;;;;1015082;29;936;-27
2022/02/24 03:04:44;;;;;;;;;;;;;;;;;;1014819;29;940;-28
2022/02/24 03:05:14;;;;;;;;;;;;;;;;;;1015051;29;938;-27
2022/02/24 03:05:45;;;;;;;;;;;;;;;;;;1015038;29;1008;-28
2022/02/24 03:06:15;;;;;;;;;;;;;;;;;;1015096;29;979;-28
2022/02/24 03:06:45;;;;;;;;;;;;;;;;;;1015286;29;808;-27
2022/02/24 03:07:17;;;;;;;;;;;;;;;;;;1015108;29;940;-27
2022/02/24 03:07:48;;;;;;;;;;;;;;;;;;1015055;29;958;-27
2022/02/24 03:08:18;;;;;;;;;;;;;;;;;;1015175;29;953;-27
2022/02/24 03:08:49;;;;;;;;;;;;;;;;;;1015160;29;943;-28
2022/02/24 03:09:19;;;;;;;;;;;;;;;;;;1015166;29;912;-27
2022/02/24 03:09:49;;;;;;;;;;;;;;;;;;1015010;29;963;-27
2022/02/24 03:10:20;;;;;;;;;;;;;;;;;;1015333;29;887;-27
2022/02/24 03:10:51;;;;;;;;;;;;;;;;;;1014990;29;1028;-27
2022/02/24 03:11:21;;;;;;;;;;;;;;;;;;1015232;29;1009;-27
2022/02/24 03:11:51;;;;;;;;;;;;;;;;;;1015215;29;993;-27
2022/02/24 03:12:21;;;;;;;;;;;;;;;;;;1014408;29;954;-27
2022/02/24 03:12:53;;;;;;;;;;;;;;;;;;1015287;29;908;-27
2022/02/24 03:13:23;;;;;;;;;;;;;;;;;;1014986;29;994;-27
2022/02/24 03:13:54;;;;;;;;;;;;;;;;;;1015278;29;1297;-27
2022/02/24 03:14:24;;;;;;;;;;;;;;;;;;1014933;29;913;-27
2022/02/24 03:14:54;;;;;;;;;;;;;;;;;;1015170;29;923;-27
2022/02/24 03:15:25;;;;;;;;;;;;;;;;;;1015101;29;906;-27
2022/02/24 03:15:55;;;;;;;;;;;;;;;;;;1014884;29;864;-28
2022/02/24 03:16:26;;;;;;;;;;;;;;;;;;1014820;29;960;-27
2022/02/24 03:16:56;;;;;;;;;;;;;;;;;;1014693;29;807;-27
2022/02/24 03:17:28;;;;;;;;;;;;;;;;;;1014759;29;972;-28
2022/02/24 03:17:59;;;;;;;;;;;;;;;;;;1014956;29;976;-27
2022/02/24 03:18:29;;;;;;;;;;;;;;;;;;1015365;29;903;-27
2022/02/24 03:19:00;;;;;;;;;;;;;;;;;;1014859;29;872;-27
2022/02/24 03:19:30;;;;;;;;;;;;;;;;;;1014764;29;835;-27
2022/02/24 03:20:01;;;;;;;;;;;;;;;;;;1014293;29;911;-27
2022/02/24 03:20:32;;;;;;;;;;;;;;;;;;1014844;29;907;-27
2022/02/24 03:21:03;;;;;;;;;;;;;;;;;;1014822;29;1639;-27
2022/02/24 03:21:33;;;;;;;;;;;;;;;;;;1014903;29;962;-27
2022/02/24 03:22:07;;;;;;;;;;;;;;;;;;1015239;29;964;-27
2022/02/24 03:22:38;;;;;;;;;;;;;;;;;;1014978;29;970;-27
2022/02/24 03:23:09;;;;;;;;;;;;;;;;;;1015142;29;899;-27
2022/02/24 03:23:39;;;;;;;;;;;;;;;;;;1015018;29;1980;-27
2022/02/24 03:24:10;;;;;;;;;;;;;;;;;;1015072;29;832;-27
2022/02/24 03:24:40;;;;;;;;;;;;;;;;;;1015223;29;906;-27
2022/02/24 03:25:10;;;;;;;;;;;;;;;;;;1014973;29;843;-27
2022/02/24 03:25:41;;;;;;;;;;;;;;;;;;1015150;29;967;-27
2022/02/24 03:26:12;;;;;;;;;;;;;;;;;;1015026;29;932;-27
2022/02/24 03:26:42;;;;;;;;;;;;;;;;;;1015048;29;836;-27
2022/02/24 03:27:13;;;;;;;;;;;;;;;;;;1014515;29;919;-27
2022/02/24 03:27:43;;;;;;;;;;;;;;;;;;1014766;29;1247;-27
2022/02/24 03:28:13;;;;;;;;;;;;;;;;;;1015027;29;1172;-27
2022/02/24 03:28:43;;;;;;;;;;;;;;;;;;1015023;29;969;-27
2022/02/24 03:29:14;;;;;;;;;;;;;;;;;;1015190;29;868;-27
2022/02/24 03:29:45;;;;;;;;;;;;;;;;;;1014927;29;951;-27
2022/02/24 03:30:15;;;;;;;;;;;;;;;;;;1015390;29;955;-27
2022/02/24 03:30:45;;;;;;;;;;;;;;;;;;1014784;29;903;-27
2022/02/24 03:31:16;;;;;;;;;;;;;;;;;;1014896;29;747;-27
2022/02/24 03:31:46;;;;;;;;;;;;;;;;;;1014618;29;1144;-27
2022/02/24 03:32:16;;;;;;;;;;;;;;;;;;1014730;29;903;-27
2022/02/24 03:32:47;;;;;;;;;;;;;;;;;;1014721;29;919;-27
2022/02/24 03:33:17;;;;;;;;;;;;;;;;;;1015022;29;898;-27
2022/02/24 03:33:47;;;;;;;;;;;;;;;;;;1015143;29;1142;-27
2022/02/24 03:34:18;;;;;;;;;;;;;;;;;;1014748;29;927;-27
2022/02/24 03:34:48;;;;;;;;;;;;;;;;;;1014913;29;1040;-27
2022/02/24 03:35:19;;;;;;;;;;;;;;;;;;1014972;29;960;-27